Time;durP1;ratioP1;P1;durP2;ratioP2;P2;SDS_P1;SDS_P2;PMS_P1;PMS_P2;Temp;Humidity;BMP_temperature;BMP_pressure;BME280_temperature;BME280_humidity;BME280_pressure;Samples;Min_cycle;Max_cycle;Signal;HPM_P1;HPM_P2
2021/10/02 00:35:36;;;;;;;3.47;3.17;;;18.10;99.90;;;;;;5041247;28;20479;-41
2021/10/02 00:46:29;;;;;;;3.87;3.47;;;17.90;99.90;;;;;;5111983;28;20469;-42
2021/10/02 00:49:01;;;;;;;3.77;3.30;;;17.80;99.90;;;;;;5124536;28;20450;-42
2021/10/02 00:51:32;;;;;;;3.70;3.40;;;17.80;99.90;;;;;;5141669;27;20445;-42
2021/10/02 00:54:03;;;;;;;3.87;3.53;;;17.80;99.90;;;;;;5141105;27;20470;-42
2021/10/02 00:56:34;;;;;;;3.57;3.27;;;17.70;99.90;;;;;;5143801;27;20505;-42
2021/10/02 00:59:05;;;;;;;3.50;3.20;;;17.70;99.90;;;;;;5144215;27;20420;-42
2021/10/02 01:01:52;;;;;;;3.73;3.43;;;17.60;99.90;;;;;;5142373;27;20460;-41
2021/10/02 01:04:32;;;;;;;3.77;3.43;;;17.50;99.90;;;;;;5143997;27;20463;-41
2021/10/02 01:07:12;;;;;;;5.40;3.57;;;17.40;99.90;;;;;;5145649;27;20487;-42
2021/10/02 01:10:08;;;;;;;4.40;3.70;;;17.40;99.90;;;;;;5144865;27;20440;-42
2021/10/02 01:12:47;;;;;;;3.60;3.30;;;17.40;99.90;;;;;;5144146;27;20770;-41
2021/10/02 01:15:28;;;;;;;3.87;3.53;;;17.20;99.90;;;;;;5145069;27;20444;-41
2021/10/02 01:18:06;;;;;;;4.23;3.80;;;17.10;99.90;;;;;;5143655;27;20480;-42
2021/10/02 01:20:51;;;;;;;4.13;3.70;;;17.10;99.90;;;;;;5144412;27;20445;-41
2021/10/02 01:24:05;;;;;;;3.90;3.60;;;17.00;99.90;;;;;;5144925;27;20537;-41
2021/10/02 01:27:10;;;;;;;4.00;3.70;;;17.00;99.90;;;;;;5144627;27;20453;-42
2021/10/02 01:29:45;;;;;;;5.97;4.53;;;16.80;99.90;;;;;;5101586;27;20452;-41
2021/10/02 01:32:21;;;;;;;5.00;4.50;;;16.80;99.90;;;;;;5144387;27;20448;-41
2021/10/02 01:35:04;;;;;;;4.80;3.77;;;16.70;99.90;;;;;;5144187;27;20448;-41
2021/10/02 01:37:55;;;;;;;3.90;3.60;;;16.60;99.90;;;;;;5144226;27;20532;-42
2021/10/02 01:48:57;;;;;;;4.57;4.17;;;16.10;99.90;;;;;;5143805;27;20473;-41
2021/10/02 01:51:28;;;;;;;4.30;3.90;;;16.10;99.90;;;;;;5139589;27;20516;-42
2021/10/02 01:54:00;;;;;;;4.80;4.40;;;16.00;99.90;;;;;;5136127;27;20461;-41
2021/10/02 01:56:32;;;;;;;4.57;4.17;;;15.90;99.90;;;;;;5132328;27;20509;-42
2021/10/02 01:59:04;;;;;;;4.30;3.90;;;15.90;99.90;;;;;;5143476;27;20481;-41
2021/10/02 02:01:41;;;;;;;5.10;4.07;;;15.70;99.90;;;;;;5143533;27;20459;-42
2021/10/02 02:04:13;;;;;;;5.43;4.00;;;15.60;99.90;;;;;;5143622;27;20480;-41
2021/10/02 02:06:46;;;;;;;4.47;4.07;;;15.60;99.90;;;;;;5142444;27;20441;-41
2021/10/02 02:09:18;;;;;;;4.93;4.53;;;15.50;99.90;;;;;;5140540;27;20480;-42
2021/10/02 02:11:49;;;;;;;5.50;4.67;;;15.40;99.90;;;;;;5144040;27;20742;-41
2021/10/02 02:14:20;;;;;;;6.43;4.67;;;15.40;99.90;;;;;;5144144;27;20492;-41
2021/10/02 02:16:54;;;;;;;5.07;4.60;;;15.30;99.90;;;;;;5143592;27;20445;-42
2021/10/02 02:19:28;;;;;;;5.70;4.43;;;15.20;99.90;;;;;;5144005;27;20852;-42
2021/10/02 02:21:59;;;;;;;4.60;4.20;;;15.10;99.90;;;;;;5142964;27;20452;-42
2021/10/02 02:24:30;;;;;;;5.03;4.53;;;15.00;99.90;;;;;;5144179;28;20559;-42
2021/10/02 02:27:03;;;;;;;6.37;4.83;;;14.90;99.90;;;;;;5144500;28;20542;-41
2021/10/02 02:29:35;;;;;;;6.13;4.73;;;14.80;99.90;;;;;;5143653;27;20452;-41
2021/10/02 02:32:08;;;;;;;4.93;4.47;;;14.80;99.90;;;;;;5143140;27;20468;-41
2021/10/02 02:34:39;;;;;;;6.10;4.23;;;14.70;99.90;;;;;;5141866;27;20535;-41
2021/10/02 02:37:10;;;;;;;4.73;4.27;;;14.70;99.90;;;;;;5143384;27;20474;-40
2021/10/02 02:39:41;;;;;;;5.77;5.17;;;14.60;99.90;;;;;;5143804;28;20441;-41
2021/10/02 02:42:12;;;;;;;6.30;5.70;;;14.50;99.90;;;;;;5144210;28;20433;-41
2021/10/02 02:44:43;;;;;;;7.63;6.57;;;14.50;99.90;;;;;;5143680;27;20508;-41
2021/10/02 02:47:21;;;;;;;6.80;5.60;;;14.40;99.90;;;;;;5145748;27;20452;-41
2021/10/02 02:49:59;;;;;;;5.67;5.03;;;14.40;99.90;;;;;;5133085;27;20447;-41
2021/10/02 02:52:39;;;;;;;6.00;5.50;;;14.40;99.90;;;;;;5143587;28;20561;-41
2021/10/02 02:55:13;;;;;;;8.03;5.67;;;14.30;99.90;;;;;;5142556;27;20436;-42
2021/10/02 02:57:49;;;;;;;7.97;5.17;;;14.30;99.90;;;;;;5148234;27;20448;-41
2021/10/02 03:00:24;;;;;;;16.53;15.30;;;14.30;99.90;;;;;;5147545;27;20499;-41
2021/10/02 03:03:02;;;;;;;39.80;36.70;;;14.30;99.90;;;;;;5147422;27;20482;-41
2021/10/02 03:05:34;;;;;;;30.80;28.00;;;14.40;99.90;;;;;;5147655;27;20492;-40
2021/10/02 03:08:08;;;;;;;103.07;94.70;;;14.40;99.90;;;;;;5147071;27;20455;-41
2021/10/02 03:10:41;;;;;;;88.30;81.30;;;14.40;99.90;;;;;;5145182;27;20924;-41
2021/10/02 03:13:15;;;;;;;73.97;67.80;;;14.40;99.90;;;;;;5147410;27;20460;-41
2021/10/02 03:15:49;;;;;;;66.80;60.70;;;14.30;99.90;;;;;;5147560;27;20464;-42
2021/10/02 03:18:23;;;;;;;67.27;61.50;;;14.40;99.90;;;;;;5146430;27;20459;-40
2021/10/02 03:20:57;;;;;;;81.33;74.10;;;14.30;99.90;;;;;;5147175;27;20481;-41
2021/10/02 03:23:30;;;;;;;69.60;63.13;;;14.30;99.90;;;;;;5147045;27;20544;-41
2021/10/02 03:26:03;;;;;;;36.23;32.87;;;14.30;99.90;;;;;;5147301;27;20440;-41
2021/10/02 03:28:35;;;;;;;53.07;48.27;;;14.30;99.90;;;;;;5146364;27;20472;-43
2021/10/02 03:31:08;;;;;;;41.77;37.67;;;14.20;99.90;;;;;;5141571;27;20957;-42
2021/10/02 03:33:41;;;;;;;26.60;23.37;;;14.20;99.90;;;;;;5142621;27;20456;-40
2021/10/02 03:36:13;;;;;;;40.40;36.70;;;14.20;99.90;;;;;;5146011;27;20472;-41
2021/10/02 03:38:44;;;;;;;47.97;43.27;;;14.20;99.90;;;;;;5144677;27;20461;-41
2021/10/02 03:41:15;;;;;;;54.83;48.70;;;14.10;99.90;;;;;;5146264;27;20582;-41
2021/10/02 03:43:46;;;;;;;31.17;28.27;;;14.10;99.90;;;;;;5146131;27;21111;-41
2021/10/02 03:46:20;;;;;;;107.97;97.60;;;14.30;99.90;;;;;;5144977;27;20526;-41
2021/10/02 03:48:53;;;;;;;41.53;37.63;;;14.30;99.90;;;;;;5145321;27;20455;-41
2021/10/02 03:51:24;;;;;;;35.37;32.17;;;14.30;99.90;;;;;;5146585;27;20455;-41
2021/10/02 03:53:55;;;;;;;85.70;77.60;;;14.20;99.90;;;;;;5145800;27;20457;-41
2021/10/02 03:56:29;;;;;;;42.67;38.77;;;14.20;99.90;;;;;;5145934;27;20513;-41
2021/10/02 03:59:01;;;;;;;55.43;50.03;;;14.20;99.90;;;;;;5142055;27;20436;-40
2021/10/02 04:01:33;;;;;;;72.23;65.40;;;14.20;99.90;;;;;;5134985;27;20497;-41
2021/10/02 04:04:06;;;;;;;32.83;29.83;;;14.20;99.90;;;;;;5139307;27;20844;-41
2021/10/02 04:06:39;;;;;;;38.63;35.20;;;14.10;99.90;;;;;;5145196;27;20484;-41
2021/10/02 04:09:10;;;;;;;39.43;36.23;;;14.10;99.90;;;;;;5146357;27;20521;-41
2021/10/02 04:11:41;;;;;;;36.07;32.70;;;14.10;99.90;;;;;;5145763;27;20461;-41
2021/10/02 04:14:18;;;;;;;45.43;41.43;;;14.10;99.90;;;;;;5146479;27;20519;-41
2021/10/02 04:16:49;;;;;;;24.70;22.37;;;14.00;99.90;;;;;;5145634;27;20479;-41
2021/10/02 04:19:22;;;;;;;21.23;19.43;;;14.00;99.90;;;;;;5145625;27;20786;-42
2021/10/02 04:21:53;;;;;;;15.87;14.37;;;13.90;99.90;;;;;;5144449;27;20503;-42
2021/10/02 04:24:28;;;;;;;44.77;40.67;;;13.80;99.90;;;;;;5144684;27;20484;-42
2021/10/02 04:26:59;;;;;;;31.60;28.53;;;13.80;99.90;;;;;;5144601;27;20448;-42
2021/10/02 04:29:30;;;;;;;16.60;15.00;;;13.70;99.90;;;;;;5141543;27;20441;-42
2021/10/02 04:32:05;;;;;;;16.73;15.20;;;13.60;99.90;;;;;;5143269;27;20551;-42
2021/10/02 04:34:37;;;;;;;11.87;10.90;;;13.60;99.90;;;;;;5134918;27;20452;-42
2021/10/02 04:37:08;;;;;;;13.80;9.07;;;13.50;99.90;;;;;;5139352;27;20496;-41
2021/10/02 04:39:39;;;;;;;8.17;7.20;;;13.40;99.90;;;;;;5140853;27;20464;-42
2021/10/02 04:42:10;;;;;;;8.03;7.23;;;13.40;99.90;;;;;;5143916;27;20505;-42
2021/10/02 04:44:46;;;;;;;12.60;7.20;;;13.30;99.90;;;;;;5145135;27;20480;-42
2021/10/02 04:47:17;;;;;;;8.23;7.33;;;13.30;99.90;;;;;;5141736;27;20445;-42
2021/10/02 04:49:50;;;;;;;8.13;7.33;;;13.20;99.90;;;;;;5144925;27;20465;-42
2021/10/02 04:52:24;;;;;;;8.40;7.50;;;13.20;99.90;;;;;;5145245;27;20445;-42
2021/10/02 04:54:56;;;;;;;8.67;7.97;;;13.10;99.90;;;;;;5144689;27;20449;-42
2021/10/02 04:57:29;;;;;;;10.70;8.07;;;13.00;99.90;;;;;;5144326;27;20567;-42
2021/10/02 05:00:01;;;;;;;8.93;8.03;;;13.00;99.90;;;;;;5144996;27;20469;-43
2021/10/02 05:02:32;;;;;;;9.20;7.27;;;12.90;99.90;;;;;;5144535;27;20460;-41
2021/10/02 05:05:06;;;;;;;9.77;6.87;;;12.80;99.90;;;;;;5144480;27;20487;-41
2021/10/02 05:07:37;;;;;;;7.93;6.87;;;12.80;99.90;;;;;;5139397;27;20453;-42
2021/10/02 05:10:08;;;;;;;7.73;7.03;;;12.70;99.90;;;;;;5144390;27;20449;-42
2021/10/02 05:12:40;;;;;;;6.73;6.13;;;12.70;99.90;;;;;;5144648;27;20545;-41
2021/10/02 05:15:11;;;;;;;9.10;5.50;;;12.60;99.90;;;;;;5144323;27;20452;-42
2021/10/02 05:17:42;;;;;;;7.90;6.67;;;12.50;99.90;;;;;;5143418;27;20497;-42
2021/10/02 05:20:18;;;;;;;8.00;6.70;;;12.50;99.90;;;;;;5144203;27;20447;-42
2021/10/02 05:22:49;;;;;;;8.60;6.63;;;12.50;99.90;;;;;;5144897;27;20863;-42
2021/10/02 05:25:20;;;;;;;9.97;7.60;;;12.40;99.90;;;;;;5144525;27;20501;-42
2021/10/02 05:27:51;;;;;;;8.80;7.90;;;12.40;99.90;;;;;;5144966;27;20500;-42
2021/10/02 05:30:22;;;;;;;9.97;8.80;;;12.30;99.90;;;;;;5143550;27;20465;-42
2021/10/02 05:32:53;;;;;;;11.70;8.30;;;12.30;99.90;;;;;;5144442;27;20505;-42
2021/10/02 05:35:25;;;;;;;8.93;7.50;;;12.20;99.90;;;;;;5144550;27;20452;-42
2021/10/02 05:37:56;;;;;;;11.90;9.03;;;12.20;99.90;;;;;;5144263;27;20459;-42
2021/10/02 05:40:28;;;;;;;11.40;7.90;;;12.20;99.90;;;;;;5143361;27;20476;-42
2021/10/02 05:43:02;;;;;;;8.50;7.47;;;12.10;99.90;;;;;;5143633;27;20445;-42
2021/10/02 05:45:33;;;;;;;10.33;8.60;;;12.10;99.90;;;;;;5143301;27;20504;-42
2021/10/02 05:48:04;;;;;;;14.93;11.23;;;12.00;99.90;;;;;;5143272;27;20553;-42
2021/10/02 05:50:39;;;;;;;13.03;11.73;;;12.00;99.90;;;;;;5144044;27;20491;-42
2021/10/02 05:53:10;;;;;;;39.20;36.00;;;11.90;99.90;;;;;;5144229;27;20458;-42
2021/10/02 05:55:41;;;;;;;22.80;20.80;;;11.90;99.90;;;;;;5143303;27;20453;-43
2021/10/02 05:58:14;;;;;;;15.40;14.00;;;11.90;99.90;;;;;;5144078;27;20498;-43
2021/10/02 06:00:46;;;;;;;14.27;12.90;;;11.90;99.90;;;;;;5143518;27;20470;-40
2021/10/02 06:03:17;;;;;;;14.50;13.03;;;11.90;99.90;;;;;;5123439;28;20502;-42
2021/10/02 06:05:50;;;;;;;15.77;14.07;;;11.90;99.90;;;;;;5134540;27;20511;-43
2021/10/02 06:08:21;;;;;;;17.47;15.70;;;11.80;99.90;;;;;;5143792;27;20567;-43
2021/10/02 06:10:52;;;;;;;14.00;12.80;;;11.80;99.90;;;;;;5143945;27;20449;-43
2021/10/02 06:13:26;;;;;;;14.30;12.53;;;11.70;99.90;;;;;;5144140;27;20477;-43
2021/10/02 06:15:57;;;;;;;11.30;10.30;;;11.70;99.90;;;;;;5143287;27;20445;-41
2021/10/02 06:18:28;;;;;;;11.63;10.50;;;11.70;99.90;;;;;;5123473;28;20499;-41
2021/10/02 06:21:01;;;;;;;12.27;10.80;;;11.70;99.90;;;;;;5141465;28;20491;-42
2021/10/02 06:23:32;;;;;;;11.03;10.03;;;11.70;99.90;;;;;;5123544;28;20500;-42
2021/10/02 06:26:02;;;;;;;12.27;11.00;;;11.70;99.90;;;;;;5142408;28;20595;-42
2021/10/02 06:28:34;;;;;;;18.33;11.93;;;11.60;99.90;;;;;;5144244;27;20470;-42
2021/10/02 06:31:08;;;;;;;13.80;11.23;;;11.60;99.90;;;;;;5147264;27;20498;-42
2021/10/02 06:33:39;;;;;;;12.97;11.87;;;11.60;99.90;;;;;;5147015;27;20562;-42
2021/10/02 06:36:12;;;;;;;10.83;9.40;;;11.60;99.90;;;;;;5148041;27;20453;-41
2021/10/02 06:38:43;;;;;;;9.73;8.47;;;11.60;99.90;;;;;;5147915;27;20451;-42
2021/10/02 06:41:14;;;;;;;9.70;8.33;;;11.60;99.90;;;;;;5147095;27;20932;-42
2021/10/02 06:43:45;;;;;;;13.70;9.60;;;11.60;99.90;;;;;;5148001;27;20479;-42
2021/10/02 06:46:16;;;;;;;10.80;8.70;;;11.70;99.90;;;;;;5146749;27;20507;-42
2021/10/02 06:48:49;;;;;;;8.53;6.80;;;11.80;99.90;;;;;;5147329;27;20809;-41
2021/10/02 06:51:22;;;;;;;8.77;6.90;;;11.80;99.90;;;;;;5147420;27;20552;-42
2021/10/02 06:53:53;;;;;;;8.80;7.33;;;11.80;99.90;;;;;;5142545;27;20473;-42
2021/10/02 06:56:24;;;;;;;7.30;5.60;;;11.80;99.90;;;;;;5141576;27;20452;-42
2021/10/02 06:58:55;;;;;;;8.33;6.70;;;11.90;99.90;;;;;;5146902;27;20457;-42
2021/10/02 07:01:27;;;;;;;9.37;5.50;;;11.90;99.90;;;;;;5146688;27;20508;-42
2021/10/02 07:04:00;;;;;;;9.27;6.00;;;11.90;99.90;;;;;;5147539;27;20448;-42
2021/10/02 07:06:49;;;;;;;10.33;5.07;;;11.90;99.90;;;;;;5146442;27;20472;-42
2021/10/02 07:09:20;;;;;;;7.60;5.43;;;12.00;99.90;;;;;;5147378;27;20453;-42
2021/10/02 07:11:51;;;;;;;10.40;5.00;;;12.00;99.90;;;;;;5147127;27;20452;-42
2021/10/02 07:14:22;;;;;;;9.40;5.20;;;12.00;99.90;;;;;;5147087;27;20444;-42
2021/10/02 07:16:56;;;;;;;8.07;4.90;;;12.00;99.90;;;;;;5146760;27;20758;-42
2021/10/02 07:19:26;;;;;;;8.73;5.03;;;12.00;99.90;;;;;;5147262;27;20472;-42
2021/10/02 07:21:59;;;;;;;12.70;6.10;;;12.00;99.90;;;;;;5146701;27;20444;-41
2021/10/02 07:24:30;;;;;;;7.30;5.70;;;12.00;99.90;;;;;;5147063;27;20484;-42
2021/10/02 07:27:01;;;;;;;8.77;6.67;;;12.00;99.90;;;;;;5147072;27;20487;-42
2021/10/02 07:29:32;;;;;;;9.40;7.40;;;12.00;99.90;;;;;;5147075;27;20532;-42
2021/10/02 07:32:04;;;;;;;13.03;6.90;;;12.00;99.90;;;;;;5146333;27;20449;-42
2021/10/02 07:34:35;;;;;;;9.07;6.30;;;11.90;99.90;;;;;;5147198;27;20490;-41
2021/10/02 07:37:07;;;;;;;13.80;6.80;;;11.90;99.90;;;;;;5146376;27;20449;-43
2021/10/02 07:39:38;;;;;;;15.77;8.37;;;11.90;99.90;;;;;;5146554;27;20480;-42
2021/10/02 07:42:10;;;;;;;9.07;6.27;;;11.90;99.90;;;;;;5145861;27;20449;-43
2021/10/02 07:44:43;;;;;;;7.67;4.97;;;11.90;99.90;;;;;;5146323;27;20459;-41
2021/10/02 07:47:15;;;;;;;5.17;3.83;;;11.80;99.90;;;;;;5145869;27;20565;-41
2021/10/02 07:49:51;;;;;;;5.90;3.40;;;11.90;99.90;;;;;;5146366;27;20473;-42
2021/10/02 07:52:24;;;;;;;5.80;4.37;;;11.80;99.90;;;;;;5146042;27;20444;-41
2021/10/02 07:54:55;;;;;;;7.10;3.60;;;11.80;99.90;;;;;;5146452;27;20467;-41
2021/10/02 07:57:27;;;;;;;5.37;2.90;;;11.80;99.90;;;;;;5146669;27;20534;-41
2021/10/02 07:59:58;;;;;;;5.47;3.20;;;11.90;99.90;;;;;;5145164;27;20546;-43
2021/10/02 08:02:30;;;;;;;5.30;3.40;;;11.90;99.90;;;;;;5145913;27;20469;-43
2021/10/02 08:05:02;;;;;;;6.27;2.67;;;11.80;99.90;;;;;;5146444;27;20534;-43
2021/10/02 08:07:35;;;;;;;8.47;3.83;;;11.70;99.90;;;;;;5146444;27;20935;-40
2021/10/02 08:10:06;;;;;;;6.10;3.53;;;11.60;99.90;;;;;;5146572;27;20449;-41
2021/10/02 08:12:37;;;;;;;10.83;3.50;;;11.50;99.90;;;;;;5146740;27;20477;-42
2021/10/02 08:15:10;;;;;;;7.97;3.60;;;11.40;99.90;;;;;;5146636;27;20463;-42
2021/10/02 08:17:42;;;;;;;7.50;3.50;;;11.40;99.90;;;;;;5145712;27;20448;-42
2021/10/02 08:20:15;;;;;;;7.50;3.07;;;11.30;99.90;;;;;;5146689;27;20447;-42
2021/10/02 08:22:50;;;;;;;5.70;3.47;;;11.30;99.90;;;;;;5146565;27;20465;-42
2021/10/02 08:25:21;;;;;;;4.90;3.30;;;11.20;99.90;;;;;;5146411;27;20444;-42
2021/10/02 08:27:57;;;;;;;5.20;3.10;;;11.10;99.90;;;;;;5145952;27;20480;-42
2021/10/02 08:30:28;;;;;;;8.77;4.63;;;11.10;99.90;;;;;;5139824;27;20449;-42
2021/10/02 08:33:00;;;;;;;8.20;3.67;;;11.10;99.90;;;;;;5145885;27;20480;-42
2021/10/02 08:35:31;;;;;;;5.90;3.70;;;11.00;99.90;;;;;;5140652;27;20440;-42
2021/10/02 08:38:04;;;;;;;6.43;3.67;;;11.00;99.90;;;;;;5146183;27;20445;-42
2021/10/02 08:40:35;;;;;;;6.37;3.70;;;10.90;99.90;;;;;;5146067;27;20223;-41
2021/10/02 08:43:10;;;;;;;7.97;3.87;;;10.90;99.90;;;;;;5145739;27;20525;-42
2021/10/02 08:45:42;;;;;;;10.20;3.87;;;10.90;99.90;;;;;;5146112;27;20464;-41
2021/10/02 08:48:16;;;;;;;7.33;3.47;;;10.80;99.90;;;;;;5144076;27;20508;-42
2021/10/02 08:50:48;;;;;;;5.97;2.83;;;10.80;99.90;;;;;;5145395;27;20476;-41
2021/10/02 08:53:21;;;;;;;4.80;3.57;;;10.80;99.90;;;;;;5145105;27;20456;-42
2021/10/02 08:55:55;;;;;;;3.57;3.27;;;10.70;99.90;;;;;;5125636;28;20455;-42
2021/10/02 08:58:26;;;;;;;5.10;3.40;;;10.60;99.90;;;;;;5126794;27;20446;-42
2021/10/02 09:00:59;;;;;;;4.80;4.00;;;10.60;99.90;;;;;;5145712;27;20517;-42
2021/10/02 09:03:31;;;;;;;4.57;3.75;;;10.50;99.90;;;;;;5144223;27;20195;-42
2021/10/02 09:06:04;;;;;;;6.97;5.18;;;10.40;99.90;;;;;;5144969;27;20213;-42
2021/10/02 09:08:37;;;;;;;6.57;3.28;;;10.40;99.90;;;;;;5145737;27;20202;-42
2021/10/02 09:11:08;;;;;;;4.80;3.70;;;10.30;99.90;;;;;;5145706;27;20292;-42
2021/10/02 09:13:40;;;;;;;11.90;4.10;;;10.30;99.90;;;;;;5145135;27;20453;-41
2021/10/02 09:16:13;;;;;;;5.10;3.10;;;10.30;99.90;;;;;;5145362;27;20445;-41
2021/10/02 09:18:44;;;;;;;7.03;3.80;;;10.20;99.90;;;;;;5144758;27;20203;-42
2021/10/02 09:21:15;;;;;;;7.80;4.22;;;10.20;99.90;;;;;;5145253;27;20232;-42
2021/10/02 09:23:50;;;;;;;6.97;4.32;;;10.20;99.90;;;;;;5145388;27;20203;-41
2021/10/02 09:26:42;;;;;;;4.07;3.65;;;10.10;99.90;;;;;;5124693;28;20199;-41
2021/10/02 09:29:17;;;;;;;6.28;3.78;;;10.10;99.90;;;;;;5137644;27;20227;-42
2021/10/02 09:31:48;;;;;;;6.55;4.20;;;10.10;99.90;;;;;;5144684;27;20621;-42
2021/10/02 09:34:27;;;;;;;4.40;3.50;;;10.00;99.90;;;;;;5144394;27;20223;-42
2021/10/02 09:36:58;;;;;;;6.18;3.33;;;10.00;99.90;;;;;;5144581;27;20241;-42
2021/10/02 09:39:44;;;;;;;5.97;3.50;;;9.90;99.90;;;;;;5144421;27;20221;-43
2021/10/02 09:42:25;;;;;;;6.80;4.35;;;9.90;99.90;;;;;;5145585;27;20187;-43
2021/10/02 09:44:59;;;;;;;5.60;4.18;;;9.90;99.90;;;;;;5144777;27;20238;-42
2021/10/02 09:47:30;;;;;;;8.00;3.72;;;9.80;99.90;;;;;;5144446;27;20293;-43
2021/10/02 09:50:01;;;;;;;5.43;4.25;;;9.80;99.90;;;;;;5143374;27;20641;-42
2021/10/02 09:52:35;;;;;;;5.50;4.10;;;9.80;99.90;;;;;;5133797;27;20227;-42
2021/10/02 09:55:22;;;;;;;7.13;4.15;;;9.80;99.90;;;;;;5143783;27;20228;-42
2021/10/02 09:57:56;;;;;;;5.70;3.95;;;9.80;99.90;;;;;;5145000;27;20203;-42
2021/10/02 10:00:29;;;;;;;7.82;4.00;;;9.80;99.90;;;;;;5144389;27;20222;-42
2021/10/02 10:03:04;;;;;;;7.22;4.32;;;9.70;99.90;;;;;;5143544;27;20208;-41
2021/10/02 10:05:36;;;;;;;9.10;4.00;;;9.70;99.90;;;;;;5143514;27;20271;-41
2021/10/02 10:08:09;;;;;;;6.00;4.07;;;9.70;99.90;;;;;;5142857;27;20480;-42
2021/10/02 10:10:43;;;;;;;5.15;4.05;;;9.70;99.90;;;;;;5143646;27;20241;-42
2021/10/02 10:13:15;;;;;;;6.60;3.42;;;9.70;99.90;;;;;;5143640;27;20205;-42
2021/10/02 10:15:48;;;;;;;5.70;3.83;;;9.60;99.90;;;;;;5143970;27;20187;-42
2021/10/02 10:18:28;;;;;;;7.80;5.63;;;9.50;99.90;;;;;;5143896;27;20203;-42
2021/10/02 10:21:00;;;;;;;4.82;4.10;;;9.40;99.90;;;;;;5144265;28;20231;-42
2021/10/02 10:23:33;;;;;;;6.97;4.50;;;9.40;99.90;;;;;;5142704;28;20231;-42
2021/10/02 10:26:10;;;;;;;5.60;4.65;;;9.40;99.90;;;;;;5144087;27;20207;-41
2021/10/02 10:28:43;;;;;;;4.40;3.95;;;9.40;99.90;;;;;;5143994;27;20596;-42
2021/10/02 10:31:18;;;;;;;6.90;4.20;;;9.40;99.90;;;;;;5143504;27;20196;-42
2021/10/02 10:33:52;;;;;;;5.25;4.32;;;9.30;99.90;;;;;;5144260;27;20298;-41
2021/10/02 10:36:25;;;;;;;7.30;4.38;;;9.30;99.90;;;;;;5143821;27;20218;-42
2021/10/02 10:38:56;;;;;;;6.30;5.10;;;9.20;99.90;;;;;;5143412;27;20195;-43
2021/10/02 10:41:30;;;;;;;6.45;4.40;;;9.20;99.90;;;;;;5144216;28;20260;-41
2021/10/02 10:44:01;;;;;;;6.43;4.60;;;9.10;99.90;;;;;;5144219;27;20226;-42
2021/10/02 10:46:33;;;;;;;8.70;4.90;;;9.10;99.90;;;;;;5143152;27;20735;-42
2021/10/02 10:49:04;;;;;;;5.53;4.70;;;9.10;99.90;;;;;;5143968;27;20226;-41
2021/10/02 10:51:36;;;;;;;7.60;4.70;;;9.10;99.90;;;;;;5142673;27;20230;-42
2021/10/02 10:54:17;;;;;;;9.18;5.20;;;9.10;99.90;;;;;;5144498;27;20231;-42
2021/10/02 10:56:52;;;;;;;7.10;4.55;;;9.00;99.90;;;;;;5143612;28;20195;-41
2021/10/02 10:59:23;;;;;;;7.40;4.60;;;9.00;99.90;;;;;;5143371;27;20234;-42
2021/10/02 11:01:55;;;;;;;7.25;5.18;;;9.00;99.90;;;;;;5143609;27;20238;-42
2021/10/02 11:04:37;;;;;;;6.03;5.20;;;9.00;99.90;;;;;;5144415;27;20210;-42
2021/10/02 11:07:14;;;;;;;7.38;5.80;;;8.90;99.90;;;;;;5144320;27;20250;-42
2021/10/02 11:09:46;;;;;;;9.10;5.20;;;8.80;99.90;;;;;;5143726;27;20261;-41
2021/10/02 11:12:19;;;;;;;10.52;5.10;;;8.80;99.90;;;;;;5143216;28;20646;-41
2021/10/02 11:15:04;;;;;;;7.65;5.40;;;8.70;99.90;;;;;;5144259;27;20206;-42
2021/10/02 11:17:38;;;;;;;6.18;5.10;;;8.80;99.90;;;;;;5142820;27;20718;-41
2021/10/02 11:20:37;;;;;;;8.75;6.60;;;8.80;99.90;;;;;;5145292;27;20195;-42
2021/10/02 11:23:44;;;;;;;8.90;7.10;;;8.70;99.90;;;;;;5133784;27;20548;-41
2021/10/02 11:26:21;;;;;;;9.75;7.40;;;8.70;99.90;;;;;;5145411;27;20270;-41
2021/10/02 11:29:21;;;;;;;6.93;6.00;;;8.60;99.90;;;;;;5147267;27;20286;-42
2021/10/02 11:32:26;;;;;;;9.93;5.30;;;8.60;99.90;;;;;;5146734;27;20211;-41
2021/10/02 11:35:22;;;;;;;8.23;5.85;;;8.70;99.90;;;;;;5147089;27;20223;-42
2021/10/02 11:37:56;;;;;;;7.32;6.47;;;8.70;99.90;;;;;;5129098;27;20200;-42
2021/10/02 11:41:00;;;;;;;13.93;6.13;;;8.70;99.90;;;;;;5132686;27;20210;-42
2021/10/02 11:43:36;;;;;;;10.43;5.20;;;8.60;99.90;;;;;;5062708;28;20220;-41
2021/10/02 11:46:11;;;;;;;7.57;5.07;;;8.60;99.90;;;;;;5062404;28;20348;-41
2021/10/02 11:48:47;;;;;;;8.95;4.70;;;8.60;99.90;;;;;;5061936;28;20323;-42
2021/10/02 11:51:30;;;;;;;6.38;5.32;;;8.60;99.90;;;;;;5062722;28;20316;-41
2021/10/02 11:54:14;;;;;;;9.23;5.38;;;8.60;99.90;;;;;;5063212;28;20241;-41
2021/10/02 11:57:09;;;;;;;7.72;4.97;;;8.70;99.90;;;;;;5043296;28;20298;-42
2021/10/02 11:59:45;;;;;;;7.63;4.97;;;8.70;99.90;;;;;;5059276;28;20352;-42
2021/10/02 12:02:18;;;;;;;9.57;6.13;;;8.60;99.90;;;;;;5061877;28;20611;-42
2021/10/02 12:04:52;;;;;;;9.07;5.80;;;8.70;99.90;;;;;;5063621;28;20209;-42
2021/10/02 12:07:23;;;;;;;9.52;5.20;;;8.70;99.90;;;;;;5062667;28;20206;-42
2021/10/02 12:09:57;;;;;;;7.90;5.53;;;8.80;99.90;;;;;;5061965;28;20234;-41
2021/10/02 12:12:28;;;;;;;11.52;6.55;;;8.80;99.90;;;;;;5061956;28;20225;-42
2021/10/02 12:14:59;;;;;;;13.18;5.35;;;8.70;99.90;;;;;;5122572;27;20238;-42
2021/10/02 12:17:35;;;;;;;6.07;4.45;;;8.70;99.90;;;;;;5145621;27;20222;-42
2021/10/02 12:20:07;;;;;;;8.13;5.53;;;8.60;99.90;;;;;;5145635;27;20217;-42
2021/10/02 12:22:38;;;;;;;8.57;5.35;;;8.60;99.90;;;;;;5145932;27;20206;-42
2021/10/02 12:25:09;;;;;;;7.82;6.05;;;8.60;99.90;;;;;;5146013;27;20282;-42
2021/10/02 12:27:41;;;;;;;9.55;6.03;;;8.60;99.90;;;;;;5145214;27;20207;-41
2021/10/02 12:30:16;;;;;;;9.82;5.20;;;8.50;99.90;;;;;;5145537;27;20260;-41
2021/10/02 12:32:58;;;;;;;11.63;6.32;;;8.50;99.90;;;;;;5146078;27;20218;-42
2021/10/02 12:35:30;;;;;;;8.20;5.82;;;8.50;99.90;;;;;;5130693;27;20206;-42
2021/10/02 12:38:01;;;;;;;8.73;6.25;;;8.50;99.90;;;;;;5145377;27;20240;-42
2021/10/02 12:40:32;;;;;;;8.02;5.85;;;8.50;99.90;;;;;;5145214;27;20196;-42
2021/10/02 12:43:02;;;;;;;16.08;6.50;;;8.60;99.90;;;;;;5145035;27;20195;-42
2021/10/02 12:45:36;;;;;;;7.93;6.68;;;8.60;99.90;;;;;;5145418;27;20214;-41
2021/10/02 12:48:11;;;;;;;10.65;5.70;;;8.50;99.90;;;;;;5144682;27;20260;-42
2021/10/02 12:50:46;;;;;;;10.23;5.65;;;8.60;99.90;;;;;;5145354;27;20198;-42
2021/10/02 12:53:20;;;;;;;7.82;6.10;;;8.60;99.90;;;;;;5145445;27;20229;-42
2021/10/02 12:55:51;;;;;;;9.05;6.90;;;8.50;99.90;;;;;;5141845;27;20210;-42
2021/10/02 12:58:22;;;;;;;13.07;6.85;;;8.50;99.90;;;;;;5145828;27;20246;-42
2021/10/02 13:00:56;;;;;;;13.48;6.15;;;8.50;99.90;;;;;;5144372;27;20322;-41
2021/10/02 13:03:30;;;;;;;10.82;6.40;;;8.50;99.90;;;;;;5144398;27;20202;-42
2021/10/02 13:06:02;;;;;;;9.98;5.78;;;8.40;99.90;;;;;;5144114;27;20195;-41
2021/10/02 13:08:33;;;;;;;9.10;6.20;;;8.50;99.90;;;;;;5143955;27;20246;-42
2021/10/02 13:11:04;;;;;;;7.35;5.13;;;8.50;99.90;;;;;;5144198;27;20209;-42
2021/10/02 13:13:40;;;;;;;10.50;7.50;;;8.40;99.90;;;;;;5144936;27;20222;-42
2021/10/02 13:16:21;;;;;;;11.93;6.60;;;8.40;99.90;;;;;;5144751;27;20227;-42
2021/10/02 13:18:54;;;;;;;10.32;6.10;;;8.40;99.90;;;;;;5145027;27;20202;-41
2021/10/02 13:21:25;;;;;;;9.45;5.13;;;8.40;99.90;;;;;;5144772;27;20575;-42
2021/10/02 13:24:07;;;;;;;10.27;6.15;;;8.40;99.90;;;;;;5144732;27;20218;-42
2021/10/02 13:26:47;;;;;;;8.25;5.55;;;8.40;99.90;;;;;;5144843;27;20238;-42
2021/10/02 13:29:26;;;;;;;11.93;5.53;;;8.30;99.90;;;;;;5145005;27;20290;-42
2021/10/02 13:32:00;;;;;;;9.35;6.30;;;8.30;99.90;;;;;;5143712;27;20252;-42
2021/10/02 13:34:50;;;;;;;7.63;6.53;;;8.40;99.90;;;;;;5144774;27;20257;-42
2021/10/02 13:37:25;;;;;;;11.63;7.53;;;8.30;99.90;;;;;;5141063;27;20341;-42
2021/10/02 13:40:01;;;;;;;10.10;6.57;;;8.30;99.90;;;;;;5143839;27;20241;-41
2021/10/02 13:42:33;;;;;;;10.93;6.18;;;8.30;99.90;;;;;;5138708;27;20226;-41
2021/10/02 13:45:04;;;;;;;10.00;6.50;;;8.30;99.90;;;;;;5143188;27;20207;-41
2021/10/02 13:47:35;;;;;;;10.73;5.90;;;8.30;99.90;;;;;;5143961;27;20266;-42
2021/10/02 13:50:11;;;;;;;11.07;6.57;;;8.20;99.90;;;;;;5143884;27;20318;-41
2021/10/02 13:52:43;;;;;;;8.45;6.15;;;8.30;99.90;;;;;;5143961;27;20213;-42
2021/10/02 13:55:14;;;;;;;10.07;7.05;;;8.20;99.90;;;;;;5142974;27;20529;-42
2021/10/02 13:57:45;;;;;;;10.43;6.93;;;8.20;99.90;;;;;;5143989;27;20195;-41
2021/10/02 14:00:17;;;;;;;11.50;6.05;;;8.20;99.90;;;;;;5143483;27;20227;-42
2021/10/02 14:02:48;;;;;;;9.65;6.47;;;8.10;99.90;;;;;;5143534;27;20218;-42
2021/10/02 14:05:21;;;;;;;10.35;5.97;;;8.10;99.90;;;;;;5143432;27;20195;-41
2021/10/02 14:07:53;;;;;;;7.75;5.50;;;8.10;99.90;;;;;;5144129;27;20302;-42
2021/10/02 14:10:25;;;;;;;5.75;5.15;;;8.00;99.90;;;;;;5143789;27;20219;-42
2021/10/02 14:12:56;;;;;;;6.10;5.45;;;8.00;99.90;;;;;;5143250;27;20215;-42